createdAt,value
2019-03-22T00:01:03.714Z,5.43
2019-03-22T00:03:39.364Z,6.87
2019-03-22T00:06:10.293Z,3.30
2019-03-22T00:08:41.141Z,7.33
2019-03-22T00:11:12.152Z,5.50
2019-03-22T00:13:43.141Z,9.13
2019-03-22T00:16:15.410Z,6.43
2019-03-22T00:18:48.558Z,4.50
2019-03-22T00:21:19.222Z,6.27
2019-03-22T00:23:50.221Z,8.10
2019-03-22T00:26:21.143Z,4.20
2019-03-22T00:28:54.276Z,5.77
2019-03-22T00:31:24.912Z,4.43
2019-03-22T00:33:55.820Z,4.23
2019-03-22T00:36:26.640Z,3.77
2019-03-22T00:38:57.664Z,6.50
2019-03-22T00:41:28.942Z,4.83
2019-03-22T00:44:00.125Z,5.10
2019-03-22T00:46:33.374Z,4.63
2019-03-22T00:49:05.660Z,4.03
2019-03-22T00:51:38.071Z,17.03
2019-03-22T00:54:11.941Z,5.93
2019-03-22T00:56:45.392Z,10.70
2019-03-22T00:59:16.497Z,5.80
2019-03-22T01:01:47.236Z,4.20
2019-03-22T01:04:17.962Z,3.93
2019-03-22T01:06:49.315Z,7.30
2019-03-22T01:09:20.106Z,8.87
2019-03-22T01:11:50.882Z,4.93
2019-03-22T01:14:22.028Z,6.80
2019-03-22T01:16:53.208Z,9.23
2019-03-22T01:19:24.501Z,4.40
2019-03-22T01:21:55.492Z,6.17
2019-03-22T01:24:26.857Z,12.87
2019-03-22T01:26:57.627Z,11.67
2019-03-22T01:29:29.021Z,4.67
2019-03-22T01:31:59.893Z,4.33
2019-03-22T01:34:30.700Z,4.77
2019-03-22T01:37:04.575Z,6.40
2019-03-22T01:39:34.496Z,3.50
2019-03-22T01:42:10.061Z,6.10
2019-03-22T01:44:41.240Z,7.37
2019-03-22T01:47:12.096Z,4.00
2019-03-22T01:49:42.977Z,4.83
2019-03-22T01:52:13.761Z,5.57
2019-03-22T01:54:44.681Z,5.07
2019-03-22T01:57:15.796Z,3.80
2019-03-22T01:59:46.611Z,6.30
2019-03-22T02:02:17.352Z,5.50
2019-03-22T02:04:48.761Z,5.40
2019-03-22T02:07:19.607Z,3.80
2019-03-22T02:09:50.685Z,4.87
2019-03-22T02:12:21.582Z,3.83
2019-03-22T02:14:55.503Z,4.30
2019-03-22T02:17:26.773Z,7.23
2019-03-22T02:20:02.264Z,4.40
2019-03-22T02:22:33.193Z,4.30
2019-03-22T02:25:05.826Z,5.40
2019-03-22T02:27:36.956Z,5.30
2019-03-22T02:30:08.040Z,4.30
2019-03-22T02:32:40.535Z,7.50
2019-03-22T02:35:27.440Z,4.53
2019-03-22T02:37:46.309Z,4.93
2019-03-22T02:40:17.875Z,5.33
2019-03-22T02:42:48.727Z,5.10
2019-03-22T02:45:19.776Z,5.63
2019-03-22T02:47:51.300Z,4.23
2019-03-22T02:50:22.575Z,8.33
2019-03-22T02:52:53.248Z,4.57
2019-03-22T02:55:24.148Z,5.53
2019-03-22T02:57:57.690Z,7.27
2019-03-22T03:00:31.152Z,4.47
2019-03-22T03:03:02.114Z,5.10
2019-03-22T03:05:32.854Z,4.97
2019-03-22T03:08:03.824Z,7.90
2019-03-22T03:10:34.692Z,5.35
2019-03-22T03:13:05.753Z,6.30
2019-03-22T03:15:36.442Z,6.50
2019-03-22T03:18:07.456Z,6.17
2019-03-22T03:20:38.254Z,11.37
2019-03-22T03:23:08.957Z,5.63
2019-03-22T03:25:42.003Z,13.27
2019-03-22T03:28:12.856Z,7.37
2019-03-22T03:30:44.959Z,8.50
2019-03-22T03:33:15.956Z,8.20
2019-03-22T03:35:47.243Z,7.00
2019-03-22T03:38:20.034Z,8.00
2019-03-22T03:40:53.827Z,7.63
2019-03-22T03:43:24.541Z,6.43
2019-03-22T03:45:55.303Z,7.63
2019-03-22T03:48:26.178Z,6.17
2019-03-22T03:50:56.956Z,6.00
2019-03-22T03:53:29.374Z,5.73
2019-03-22T03:56:00.522Z,6.53
2019-03-22T03:58:31.218Z,9.28
2019-03-22T04:01:02.011Z,5.03
2019-03-22T04:03:33.009Z,4.23
2019-03-22T04:06:04.106Z,6.07
2019-03-22T04:08:35.073Z,6.83
2019-03-22T04:11:05.828Z,4.72
2019-03-22T04:13:36.831Z,4.97
2019-03-22T04:16:07.548Z,5.33
2019-03-22T04:18:38.283Z,4.03
2019-03-22T04:21:09.100Z,7.40
2019-03-22T04:23:39.904Z,4.07
2019-03-22T04:26:10.741Z,4.70
2019-03-22T04:28:41.798Z,5.63
2019-03-22T04:31:13.031Z,8.50
2019-03-22T04:33:46.861Z,5.17
2019-03-22T04:36:17.570Z,4.23
2019-03-22T04:38:48.648Z,4.67
2019-03-22T04:41:19.646Z,3.90
2019-03-22T04:43:51.009Z,6.53
2019-03-22T04:46:22.233Z,5.30
2019-03-22T04:48:53.992Z,6.83
2019-03-22T04:51:25.927Z,4.87
2019-03-22T04:54:02.403Z,5.23
2019-03-22T04:56:34.450Z,4.30
2019-03-22T04:59:14.174Z,3.93
2019-03-22T05:01:40.289Z,5.10
2019-03-22T05:04:11.560Z,5.77
2019-03-22T05:06:44.401Z,7.93
2019-03-22T05:09:16.564Z,5.10
2019-03-22T05:11:48.708Z,4.57
2019-03-22T05:14:20.063Z,5.63
2019-03-22T05:16:51.767Z,5.10
2019-03-22T05:19:24.320Z,4.50
2019-03-22T05:21:55.768Z,4.83
2019-03-22T05:24:27.098Z,6.43
2019-03-22T05:26:59.666Z,4.70
2019-03-22T05:29:32.507Z,4.90
2019-03-22T05:32:09.837Z,5.10
2019-03-22T05:34:43.615Z,5.20
2019-03-22T05:37:14.752Z,10.37
2019-03-22T05:39:45.612Z,5.27
2019-03-22T05:42:16.641Z,7.20
2019-03-22T05:44:49.689Z,5.83
2019-03-22T05:47:23.387Z,7.10
2019-03-22T05:49:55.751Z,6.57
2019-03-22T05:52:26.762Z,4.60
2019-03-22T05:54:57.914Z,4.03
2019-03-22T05:57:28.979Z,9.00
2019-03-22T06:00:00.429Z,5.50
2019-03-22T06:02:31.335Z,8.40
2019-03-22T06:05:02.599Z,6.00
2019-03-22T06:07:38.173Z,7.83
2019-03-22T06:10:09.104Z,10.90
2019-03-22T06:12:40.439Z,10.90
2019-03-22T06:15:14.202Z,4.83
2019-03-22T06:17:51.557Z,6.07
2019-03-22T06:20:17.725Z,9.73
2019-03-22T06:22:48.618Z,10.10
2019-03-22T06:25:19.336Z,10.68
2019-03-22T06:27:56.275Z,13.63
2019-03-22T06:30:30.297Z,8.10
2019-03-22T06:33:01.406Z,25.33
2019-03-22T06:35:32.380Z,28.20
2019-03-22T06:38:03.512Z,18.30
2019-03-22T06:40:34.455Z,20.12
2019-03-22T06:43:05.932Z,20.20
2019-03-22T06:45:38.865Z,27.17
2019-03-22T06:48:10.261Z,26.80
2019-03-22T06:50:48.451Z,25.77
2019-03-22T06:53:22.373Z,13.30
2019-03-22T06:55:53.380Z,22.30
2019-03-22T06:58:27.652Z,14.40
2019-03-22T07:01:00.194Z,12.30
2019-03-22T07:03:33.777Z,9.70
2019-03-22T07:06:04.886Z,14.70
2019-03-22T07:08:36.152Z,23.47
2019-03-22T07:11:07.182Z,18.37
2019-03-22T07:13:38.148Z,10.73
2019-03-22T07:16:09.448Z,10.23
2019-03-22T07:18:40.613Z,11.93
2019-03-22T07:21:12.084Z,9.70
2019-03-22T07:23:43.169Z,17.10
2019-03-22T07:26:14.110Z,15.13
2019-03-22T07:28:45.352Z,15.93
2019-03-22T07:31:16.250Z,10.85
2019-03-22T07:33:48.127Z,12.27
2019-03-22T07:36:19.148Z,8.00
2019-03-22T07:38:50.449Z,11.33
2019-03-22T07:41:21.478Z,14.40
2019-03-22T07:43:52.705Z,8.93
2019-03-22T07:46:23.802Z,11.70
2019-03-22T07:48:54.967Z,8.67
2019-03-22T07:51:27.467Z,9.27
2019-03-22T07:53:58.479Z,10.43
2019-03-22T07:56:29.537Z,13.00
2019-03-22T07:59:03.723Z,11.70
2019-03-22T08:01:34.802Z,8.40
2019-03-22T08:04:06.808Z,9.53
2019-03-22T08:06:37.849Z,12.23
2019-03-22T08:09:11.027Z,12.53
2019-03-22T08:11:42.369Z,9.60
2019-03-22T08:14:16.922Z,9.80
2019-03-22T08:16:48.030Z,10.67
2019-03-22T08:19:19.011Z,10.17
2019-03-22T08:21:50.401Z,8.17
2019-03-22T08:24:21.528Z,8.10
2019-03-22T08:26:52.862Z,10.53
2019-03-22T08:29:24.208Z,7.53
2019-03-22T08:31:55.502Z,19.50
2019-03-22T08:34:26.867Z,7.70
2019-03-22T08:36:58.028Z,6.87
2019-03-22T08:39:30.177Z,11.60
2019-03-22T08:42:01.539Z,8.50
2019-03-22T08:44:32.889Z,8.53
2019-03-22T08:47:05.742Z,12.00
2019-03-22T08:49:40.287Z,7.30
2019-03-22T08:52:11.650Z,6.77
2019-03-22T08:54:42.915Z,8.40
2019-03-22T08:57:15.624Z,6.63
2019-03-22T08:59:47.256Z,8.43
2019-03-22T09:02:18.564Z,6.80
2019-03-22T09:04:49.678Z,6.60
2019-03-22T09:07:24.448Z,10.70
2019-03-22T09:09:55.890Z,7.00
2019-03-22T09:12:27.062Z,9.47
2019-03-22T09:15:02.332Z,7.37
2019-03-22T09:17:33.365Z,8.88
2019-03-22T09:20:07.488Z,5.95
2019-03-22T09:22:39.157Z,6.05
2019-03-22T09:25:10.492Z,5.62
2019-03-22T09:27:41.520Z,5.53
2019-03-22T09:30:12.996Z,5.62
2019-03-22T09:32:44.078Z,11.33
2019-03-22T09:35:15.439Z,5.37
2019-03-22T09:37:47.049Z,6.43
2019-03-22T09:40:20.872Z,8.68
2019-03-22T09:42:53.140Z,6.00
2019-03-22T09:45:24.401Z,5.28
2019-03-22T09:47:55.919Z,6.03
2019-03-22T09:50:26.809Z,5.65
2019-03-22T09:52:57.605Z,4.55
2019-03-22T09:55:28.533Z,5.03
2019-03-22T09:57:59.277Z,4.87
2019-03-22T10:00:35.432Z,5.10
2019-03-22T10:03:06.473Z,5.62
2019-03-22T10:05:37.431Z,5.45
2019-03-22T10:08:08.251Z,6.22
2019-03-22T10:10:39.665Z,5.17
2019-03-22T10:13:11.098Z,4.78
2019-03-22T10:15:41.872Z,5.72
2019-03-22T10:18:13.015Z,5.33
2019-03-22T10:20:47.371Z,8.18
2019-03-22T10:23:22.394Z,6.35
2019-03-22T10:25:53.095Z,6.12
2019-03-22T10:28:24.987Z,5.80
2019-03-22T10:30:55.724Z,6.85
2019-03-22T10:33:28.268Z,6.62
2019-03-22T10:35:59.288Z,6.62
2019-03-22T10:38:32.055Z,6.62
2019-03-22T10:41:03.587Z,6.67
2019-03-22T10:43:34.354Z,7.92
2019-03-22T10:46:07.859Z,7.67
2019-03-22T10:48:43.318Z,8.13
2019-03-22T10:51:14.391Z,7.75
2019-03-22T10:53:47.295Z,6.90
2019-03-22T10:56:17.739Z,6.60
2019-03-22T10:58:48.510Z,6.22
2019-03-22T11:01:21.283Z,7.25
2019-03-22T11:03:52.942Z,10.60
2019-03-22T11:06:26.366Z,7.65
2019-03-22T11:08:56.579Z,6.78
2019-03-22T11:11:27.600Z,6.35
2019-03-22T11:13:58.703Z,6.58
2019-03-22T11:16:31.484Z,6.58
2019-03-22T11:19:02.208Z,9.00
2019-03-22T11:24:05.401Z,6.60
2019-03-22T11:26:36.701Z,7.10
2019-03-22T11:29:07.589Z,6.20
2019-03-22T11:31:40.175Z,6.35
2019-03-22T11:34:11.633Z,6.20
2019-03-22T11:36:42.862Z,7.30
2019-03-22T11:39:15.708Z,6.65
2019-03-22T11:41:46.555Z,6.90
2019-03-22T11:44:19.579Z,6.10
2019-03-22T11:46:50.118Z,7.90
2019-03-22T11:54:20.413Z,6.53
2019-03-22T11:56:54.319Z,6.67
2019-03-22T11:59:25.243Z,6.90
2019-03-22T12:01:56.136Z,11.12
2019-03-22T12:04:27.119Z,7.40
2019-03-22T12:06:58.239Z,6.47
2019-03-22T12:09:29.420Z,7.15
2019-03-22T12:12:00.211Z,8.80
2019-03-22T12:14:31.304Z,6.92
2019-03-22T12:17:04.839Z,8.20
2019-03-22T12:19:35.643Z,7.80
2019-03-22T12:22:06.961Z,6.15
2019-03-22T12:24:37.916Z,6.80
2019-03-22T12:27:09.311Z,7.05
2019-03-22T12:29:40.233Z,6.53
2019-03-22T12:32:14.566Z,6.53
2019-03-22T12:34:48.130Z,7.00
2019-03-22T12:37:20.303Z,7.53
2019-03-22T12:39:51.203Z,6.83
2019-03-22T12:42:22.341Z,7.60
2019-03-22T12:44:53.418Z,7.72
2019-03-22T12:47:29.527Z,12.93
2019-03-22T12:50:00.499Z,6.45
2019-03-22T12:52:31.491Z,7.27
2019-03-22T13:07:33.768Z,9.10
2019-03-22T13:10:05.884Z,8.90
2019-03-22T13:12:37.293Z,9.60
2019-03-22T13:17:38.041Z,9.30
2019-03-22T13:20:09.828Z,15.30
2019-03-22T13:25:10.551Z,9.55
2019-03-22T13:27:44.327Z,9.70
2019-03-22T13:30:21.373Z,11.00
2019-03-22T13:32:52.458Z,10.40
2019-03-22T13:37:53.189Z,8.75
2019-03-22T13:40:24.226Z,7.70
2019-03-22T13:42:55.298Z,7.90
2019-03-22T13:52:54.991Z,7.57
2019-03-22T13:55:25.969Z,13.22
2019-03-22T13:57:57.233Z,8.98
2019-03-22T14:00:30.906Z,9.63
2019-03-22T14:03:04.971Z,10.30
2019-03-22T14:05:38.757Z,10.90
2019-03-22T14:08:10.294Z,11.83
2019-03-22T14:10:41.397Z,12.20
2019-03-22T14:13:14.265Z,12.83
2019-03-22T14:15:45.269Z,11.73
2019-03-22T14:18:16.108Z,13.40
2019-03-22T14:20:47.106Z,17.57
2019-03-22T14:23:19.945Z,26.43
2019-03-22T14:25:53.426Z,12.17
2019-03-22T14:28:26.115Z,12.43
2019-03-22T14:30:57.013Z,11.20
2019-03-22T14:33:28.391Z,14.43
2019-03-22T14:35:59.571Z,12.30
2019-03-22T14:38:33.215Z,12.20
2019-03-22T14:41:04.253Z,12.30
2019-03-22T14:43:35.425Z,26.77
2019-03-22T14:46:08.478Z,12.50
2019-03-22T14:48:39.646Z,13.10
2019-03-22T14:51:10.652Z,17.47
2019-03-22T14:53:41.908Z,16.37
2019-03-22T14:56:13.028Z,13.17
2019-03-22T14:58:44.293Z,14.15
2019-03-22T15:01:15.571Z,13.60
2019-03-22T15:06:16.685Z,15.55
2019-03-22T15:08:47.729Z,13.85
2019-03-22T15:11:19.658Z,16.60
2019-03-22T15:16:52.295Z,17.20
2019-03-22T15:19:42.603Z,16.80
2019-03-22T15:25:12.391Z,15.80
2019-03-22T15:28:01.813Z,14.77
2019-03-22T15:30:50.760Z,15.80
2019-03-22T15:33:46.936Z,55.80
2019-03-22T15:36:52.112Z,30.35
2019-03-22T15:39:41.143Z,20.60
2019-03-22T15:42:12.132Z,15.73
2019-03-22T15:44:43.617Z,20.47
2019-03-22T15:47:14.701Z,16.67
2019-03-22T15:49:45.875Z,15.00
2019-03-22T15:52:17.139Z,19.93
2019-03-22T15:54:48.286Z,23.07
2019-03-22T15:57:19.304Z,20.53
2019-03-22T15:59:50.275Z,19.93
2019-03-22T16:02:22.355Z,26.20
2019-03-22T16:04:53.267Z,19.40
2019-03-22T16:07:24.693Z,20.80
2019-03-22T16:09:55.762Z,16.87
2019-03-22T16:12:26.989Z,16.37
2019-03-22T16:14:58.502Z,18.98
2019-03-22T16:17:30.734Z,18.27
2019-03-22T16:20:01.748Z,23.60
2019-03-22T16:22:33.824Z,22.03
2019-03-22T16:25:05.849Z,27.67
2019-03-22T16:27:37.865Z,19.40
2019-03-22T16:30:09.270Z,18.33
2019-03-22T16:32:40.390Z,21.23
2019-03-22T16:35:12.676Z,17.73
2019-03-22T16:37:43.834Z,23.37
2019-03-22T16:40:23.890Z,21.33
2019-03-22T16:42:49.024Z,23.70
2019-03-22T16:45:38.471Z,29.70
2019-03-22T16:48:10.553Z,27.30
2019-03-22T16:50:41.830Z,32.77
2019-03-22T16:53:13.135Z,28.43
2019-03-22T16:55:44.126Z,35.93
2019-03-22T16:58:15.383Z,27.90
2019-03-22T17:00:46.835Z,26.50
2019-03-22T17:03:17.898Z,23.50
2019-03-22T17:05:49.375Z,38.90
2019-03-22T17:08:20.419Z,30.67
2019-03-22T17:10:51.506Z,20.80
2019-03-22T17:13:22.637Z,22.57
2019-03-22T17:15:53.722Z,25.83
2019-03-22T17:18:24.727Z,25.70
2019-03-22T17:20:55.850Z,26.23
2019-03-22T17:23:26.724Z,30.53
2019-03-22T17:25:57.716Z,21.43
2019-03-22T17:28:28.727Z,25.90
2019-03-22T17:30:59.452Z,36.20
2019-03-22T17:33:30.761Z,36.73
2019-03-22T17:36:02.223Z,24.00
2019-03-22T17:38:34.304Z,20.97
2019-03-22T17:41:05.533Z,40.97
2019-03-22T17:43:36.715Z,47.43
2019-03-22T17:46:07.845Z,26.53
2019-03-22T17:48:38.960Z,23.73
2019-03-22T17:51:10.185Z,36.93
2019-03-22T17:53:41.405Z,33.27
2019-03-22T17:56:12.724Z,40.00
2019-03-22T17:58:43.982Z,43.60
2019-03-22T18:03:42.131Z,45.43
2019-03-22T18:06:13.168Z,37.00
2019-03-22T18:08:44.284Z,33.57
2019-03-22T18:11:15.594Z,25.93
2019-03-22T18:13:46.650Z,34.10
2019-03-22T18:16:17.766Z,34.27
2019-03-22T18:18:49.090Z,29.53
2019-03-22T18:21:20.312Z,30.43
2019-03-22T18:23:51.677Z,39.87
2019-03-22T18:26:22.725Z,32.40
2019-03-22T18:28:53.912Z,22.23
2019-03-22T18:31:25.076Z,29.87
2019-03-22T18:33:56.136Z,24.30
2019-03-22T18:36:27.266Z,28.60
2019-03-22T18:38:58.240Z,21.97
2019-03-22T18:41:29.515Z,24.90
2019-03-22T18:44:00.413Z,23.73
2019-03-22T18:46:32.268Z,24.90
2019-03-22T18:49:03.366Z,23.37
2019-03-22T18:51:34.777Z,24.23
2019-03-22T18:54:06.829Z,21.93
2019-03-22T18:56:38.281Z,23.77
2019-03-22T18:59:09.306Z,30.17
2019-03-22T19:01:40.541Z,22.70
2019-03-22T19:04:11.785Z,20.77
2019-03-22T19:06:43.288Z,23.55
2019-03-22T19:09:14.451Z,24.00
2019-03-22T19:11:46.480Z,36.83
2019-03-22T19:14:17.679Z,47.23
2019-03-22T19:16:48.917Z,25.23
2019-03-22T19:19:20.297Z,18.73
2019-03-22T19:21:52.600Z,18.67
2019-03-22T19:24:23.743Z,17.63
2019-03-22T19:26:54.831Z,24.37
2019-03-22T19:29:25.997Z,17.20
2019-03-22T19:31:57.113Z,22.90
2019-03-22T19:34:28.382Z,25.00
2019-03-22T19:37:03.316Z,24.30
2019-03-22T19:39:34.437Z,17.50
2019-03-22T19:42:05.541Z,21.20
2019-03-22T19:44:36.659Z,16.90
2019-03-22T19:47:07.850Z,17.57
2019-03-22T19:49:38.981Z,17.85
2019-03-22T19:52:10.306Z,25.23
2019-03-22T19:54:41.227Z,19.97
2019-03-22T19:57:12.152Z,22.90
2019-03-22T19:59:43.318Z,23.80
2019-03-22T20:02:14.361Z,25.83
2019-03-22T20:04:46.295Z,19.83
2019-03-22T20:07:26.515Z,23.50
2019-03-22T20:09:50.401Z,23.10
2019-03-22T20:12:21.775Z,21.40
2019-03-22T20:14:53.458Z,28.70
2019-03-22T20:17:24.875Z,20.30
2019-03-22T20:19:56.223Z,18.50
2019-03-22T20:22:27.418Z,15.35
2019-03-22T20:24:58.762Z,15.20
2019-03-22T20:27:29.720Z,18.60
2019-03-22T20:30:01.044Z,18.00
2019-03-22T20:32:31.998Z,17.37
2019-03-22T20:35:03.012Z,13.97
2019-03-22T20:37:35.188Z,14.87
2019-03-22T20:40:06.652Z,18.90
2019-03-22T20:42:37.746Z,21.77
2019-03-22T20:45:09.282Z,15.60
2019-03-22T20:47:40.341Z,21.97
2019-03-22T20:50:12.468Z,15.83
2019-03-22T20:52:43.347Z,20.40
2019-03-22T20:55:14.675Z,19.45
2019-03-22T20:57:45.723Z,21.60
2019-03-22T21:00:16.926Z,14.90
2019-03-22T21:02:48.021Z,27.13
2019-03-22T21:05:26.951Z,18.60
2019-03-22T21:07:53.409Z,19.60
2019-03-22T21:10:24.522Z,21.30
2019-03-22T21:12:55.642Z,22.40
2019-03-22T21:15:26.685Z,26.37
2019-03-22T21:17:57.907Z,20.57
2019-03-22T21:20:29.106Z,20.47
2019-03-22T21:23:00.699Z,16.42
2019-03-22T21:25:31.858Z,19.17
2019-03-22T21:28:03.969Z,20.97
2019-03-22T21:30:36.308Z,20.40
2019-03-22T21:33:07.445Z,20.43
2019-03-22T21:35:38.578Z,25.20
2019-03-22T21:38:11.128Z,23.73
2019-03-22T21:40:43.367Z,18.40
2019-03-22T21:43:14.659Z,27.00
2019-03-22T21:45:45.823Z,19.73
2019-03-22T21:48:17.159Z,19.93
2019-03-22T21:50:48.331Z,21.40
2019-03-22T21:53:19.385Z,19.00
2019-03-22T21:55:50.530Z,17.13
2019-03-22T21:58:22.017Z,18.57
2019-03-22T22:00:53.153Z,14.70
2019-03-22T22:03:24.501Z,17.85
2019-03-22T22:05:55.870Z,15.20
2019-03-22T22:08:27.313Z,16.97
2019-03-22T22:10:59.947Z,14.40
2019-03-22T22:13:31.036Z,16.17
2019-03-22T22:16:02.128Z,16.57
2019-03-22T22:18:33.435Z,15.50
2019-03-22T22:21:04.340Z,16.23
2019-03-22T22:23:35.497Z,15.40
2019-03-22T22:26:06.676Z,13.70
2019-03-22T22:28:37.837Z,16.00
2019-03-22T22:31:08.887Z,16.00
2019-03-22T22:33:40.125Z,18.80
2019-03-22T22:36:10.996Z,16.70
2019-03-22T22:38:42.431Z,15.97
2019-03-22T22:41:13.603Z,16.53
2019-03-22T22:43:44.950Z,21.80
2019-03-22T22:46:16.033Z,18.30
2019-03-22T22:48:47.023Z,15.07
2019-03-22T22:51:18.010Z,15.90
2019-03-22T22:53:49.208Z,14.37
2019-03-22T22:56:20.222Z,19.30
2019-03-22T22:58:51.408Z,16.35
2019-03-22T23:01:22.989Z,20.27
2019-03-22T23:03:54.587Z,12.93
2019-03-22T23:06:25.629Z,15.90
2019-03-22T23:08:56.694Z,14.97
2019-03-22T23:11:27.885Z,19.83
2019-03-22T23:13:58.766Z,21.20
2019-03-22T23:16:29.702Z,16.00
2019-03-22T23:19:00.574Z,15.03
2019-03-22T23:21:31.753Z,14.87
2019-03-22T23:24:02.887Z,13.70
2019-03-22T23:26:33.946Z,17.60
2019-03-22T23:29:04.986Z,14.10
2019-03-22T23:31:36.081Z,16.40
2019-03-22T23:34:07.105Z,15.37
2019-03-22T23:36:37.868Z,23.60
2019-03-22T23:39:09.600Z,15.15
2019-03-22T23:41:40.575Z,13.03
2019-03-22T23:44:11.755Z,11.70
2019-03-22T23:46:42.898Z,14.23
2019-03-22T23:49:13.826Z,17.20
2019-03-22T23:51:44.715Z,13.93
2019-03-22T23:54:15.743Z,13.87
2019-03-22T23:56:46.890Z,14.83
2019-03-22T23:59:17.989Z,14.53
